createdAt,value
2023-10-29T00:01:04.027Z,7.71
2023-10-29T00:11:04.146Z,7.73
2023-10-29T00:21:04.019Z,7.79
2023-10-29T00:31:04.119Z,7.86
2023-10-29T00:41:03.962Z,7.94
2023-10-29T00:51:04.018Z,8.14
2023-10-29T01:01:03.944Z,8.17
2023-10-29T01:11:03.945Z,8.15
2023-10-29T01:21:03.880Z,8.2
2023-10-29T01:31:03.952Z,8.21
2023-10-29T01:41:03.894Z,8.19
2023-10-29T01:51:04.005Z,8.17
2023-10-29T02:01:03.909Z,8.28
2023-10-29T02:11:03.877Z,8.23
2023-10-29T02:21:03.880Z,8.13
2023-10-29T02:31:03.870Z,8.03
2023-10-29T02:41:03.873Z,7.92
2023-10-29T02:51:03.908Z,7.81
2023-10-29T03:01:03.940Z,7.8
2023-10-29T03:11:03.876Z,7.92
2023-10-29T03:21:03.842Z,8.02
2023-10-29T03:31:03.953Z,7.98
2023-10-29T03:41:04.037Z,7.86
2023-10-29T03:51:03.985Z,7.83
2023-10-29T04:01:04.015Z,7.69
2023-10-29T04:11:04.104Z,7.71
2023-10-29T04:21:03.948Z,7.55
2023-10-29T04:31:04.031Z,7.58
2023-10-29T04:41:03.974Z,7.49
2023-10-29T04:51:04.083Z,7.28
2023-10-29T05:01:03.866Z,7.17
2023-10-29T05:11:03.808Z,7.07
2023-10-29T05:21:03.849Z,6.97
2023-10-29T05:31:04.004Z,6.72
2023-10-29T05:41:03.844Z,6.57
2023-10-29T05:51:03.933Z,6.43
2023-10-29T06:01:03.899Z,6.47
2023-10-29T06:11:03.820Z,6.4
2023-10-29T06:21:03.874Z,6.42
2023-10-29T06:31:03.852Z,6.52
2023-10-29T06:41:03.835Z,6.74
2023-10-29T06:51:03.852Z,6.91
2023-10-29T07:01:03.847Z,7.14
2023-10-29T07:11:03.830Z,7.43
2023-10-29T07:21:03.983Z,7.72
2023-10-29T07:31:03.832Z,7.97
2023-10-29T07:41:03.836Z,8.05
2023-10-29T07:51:03.822Z,8.2
2023-10-29T08:01:03.834Z,8.41
2023-10-29T08:11:03.825Z,8.84
2023-10-29T08:21:03.892Z,9.11
2023-10-29T08:31:03.822Z,9.24
2023-10-29T08:41:03.782Z,9.38
2023-10-29T08:51:03.820Z,9.68
2023-10-29T09:01:03.926Z,10.34
2023-10-29T09:11:03.800Z,11.17
2023-10-29T09:21:03.947Z,11.86
2023-10-29T09:31:03.909Z,12.47
2023-10-29T09:41:03.812Z,13.47
2023-10-29T09:51:03.973Z,13.22
2023-10-29T10:01:03.946Z,13.33
2023-10-29T10:11:03.761Z,13.32
2023-10-29T10:21:03.883Z,13.15
2023-10-29T10:31:03.858Z,13.32
2023-10-29T10:41:03.860Z,13.31
2023-10-29T10:51:03.966Z,13.55
2023-10-29T11:01:05.387Z,14.61
2023-10-29T11:11:03.925Z,14.39
2023-10-29T11:21:03.756Z,13.98
2023-10-29T11:31:03.790Z,13.84
2023-10-29T11:41:03.702Z,14.11
2023-10-29T11:51:03.772Z,14.47
2023-10-29T12:01:03.681Z,14.68
2023-10-29T12:11:03.659Z,14.86
2023-10-29T12:21:03.754Z,15.46
2023-10-29T12:31:03.743Z,15.51
2023-10-29T12:41:03.767Z,15.83
2023-10-29T12:51:03.804Z,16.11
2023-10-29T13:01:03.714Z,16.31
2023-10-29T13:11:03.854Z,16.71
2023-10-29T13:21:03.743Z,16.79
2023-10-29T13:31:03.853Z,16.52
2023-10-29T13:41:03.738Z,16.26
2023-10-29T13:51:03.709Z,16.24
2023-10-29T14:01:03.740Z,16.05
2023-10-29T14:11:03.823Z,16.02
2023-10-29T14:21:03.671Z,16.03
2023-10-29T14:31:03.886Z,15.74
2023-10-29T14:41:03.696Z,15.79
2023-10-29T14:51:03.819Z,15.5
2023-10-29T15:01:03.788Z,15.2
2023-10-29T15:11:03.550Z,14.93
2023-10-29T15:21:03.540Z,14.77
2023-10-29T15:31:03.536Z,14.58
2023-10-29T15:41:03.541Z,14.44
2023-10-29T15:51:03.538Z,14.24
2023-10-29T16:01:03.504Z,14.15
2023-10-29T16:11:03.492Z,14.03
2023-10-29T16:21:03.534Z,14.11
2023-10-29T16:31:03.492Z,14.13
2023-10-29T16:41:03.483Z,14.04
2023-10-29T16:51:04.136Z,14
2023-10-29T17:01:03.492Z,13.86
2023-10-29T17:11:03.471Z,13.72
2023-10-29T17:21:03.646Z,13.61
2023-10-29T17:31:03.506Z,13.47
2023-10-29T17:41:03.443Z,13.45
2023-10-29T17:51:03.461Z,13.41
2023-10-29T18:01:03.436Z,13.48
2023-10-29T18:11:03.414Z,13.48
2023-10-29T18:21:03.443Z,13.7
2023-10-29T18:31:03.406Z,13.67
2023-10-29T18:41:03.414Z,13.74
2023-10-29T18:51:03.465Z,13.87
2023-10-29T19:01:03.473Z,14.05
2023-10-29T19:11:03.391Z,13.98
2023-10-29T19:21:03.476Z,13.91
2023-10-29T19:41:03.547Z,14.11
2023-10-29T19:51:03.466Z,14.24
2023-10-29T20:01:03.448Z,14.44
2023-10-29T20:11:03.447Z,14.36
2023-10-29T20:21:03.595Z,14.42
2023-10-29T20:31:03.442Z,14.4
2023-10-29T20:41:03.505Z,14.29
2023-10-29T20:51:03.575Z,14.11
2023-10-29T21:01:03.469Z,14.21
2023-10-29T21:11:03.542Z,14.05
2023-10-29T21:21:03.562Z,14.14
2023-10-29T21:31:03.518Z,14.04
2023-10-29T21:41:03.436Z,13.86
2023-10-29T21:51:03.436Z,13.8
2023-10-29T22:01:03.432Z,13.56
2023-10-29T22:11:03.408Z,13.39
2023-10-29T22:21:03.427Z,13.22
2023-10-29T22:31:03.388Z,13.05
2023-10-29T22:41:03.397Z,12.97
2023-10-29T22:51:03.435Z,12.76
2023-10-29T23:01:11.827Z,12.49
2023-10-29T23:11:03.353Z,12.33
2023-10-29T23:21:03.364Z,12.19
2023-10-29T23:31:03.404Z,12.04
2023-10-29T23:41:03.339Z,11.9
2023-10-29T23:51:03.402Z,11.68
